Time;durP1;ratioP1;P1;durP2;ratioP2;P2;SDS_P1;SDS_P2;PMS_P1;PMS_P2;Temp;Humidity;BMP_temperature;BMP_pressure;BME280_temperature;BME280_humidity;BME280_pressure;Samples;Min_cycle;Max_cycle;Signal;HPM_P1;HPM_P2
2022/12/12 00:01:12;;;;;;;;;;;19.10;50.00;;;;;;5023670;28;44804;-61
2022/12/12 00:03:40;;;;;;;3.40;3.10;;;19.00;50.00;;;;;;5032740;28;43568;-61
2022/12/12 00:06:07;;;;;;;3.03;2.80;;;19.00;50.00;;;;;;5042471;28;43466;-61
2022/12/12 00:08:36;;;;;;;3.13;2.92;;;19.00;50.10;;;;;;5024597;28;43584;-61
2022/12/12 00:11:05;;;;;;;3.05;2.85;;;18.90;50.20;;;;;;5029135;28;44982;-61
2022/12/12 00:13:33;;;;;;;3.00;2.80;;;19.00;50.00;;;;;;5036821;28;43360;-61
2022/12/12 00:16:02;;;;;;;3.35;3.05;;;19.00;50.10;;;;;;5043184;28;43439;-61
2022/12/12 00:18:30;;;;;;;2.97;2.78;;;18.90;50.00;;;;;;5025750;28;43502;-61
2022/12/12 00:20:58;;;;;;;3.05;2.85;;;18.90;50.00;;;;;;5042268;28;44702;-61
2022/12/12 00:23:25;;;;;;;3.20;3.00;;;18.90;50.00;;;;;;5042449;28;43379;-61
2022/12/12 00:26:05;;;;;;;3.13;2.90;;;18.90;50.10;;;;;;5043266;28;43532;-61
2022/12/12 00:28:33;;;;;;;3.17;2.97;;;18.90;50.10;;;;;;5026251;28;43478;-61
2022/12/12 00:31:01;;;;;;;3.13;2.88;;;18.90;50.00;;;;;;5042486;28;44780;-61
2022/12/12 00:33:28;;;;;;;3.17;2.88;;;18.80;50.20;;;;;;5042259;28;43734;-61
2022/12/12 00:35:56;;;;;;;3.15;2.95;;;18.80;50.20;;;;;;5042166;28;43423;-61
2022/12/12 00:38:23;;;;;;;2.78;2.58;;;18.80;50.20;;;;;;5026732;28;43582;-61
2022/12/12 00:40:58;;;;;;;3.10;2.90;;;18.80;50.20;;;;;;5042184;28;44774;-61
2022/12/12 00:43:26;;;;;;;2.90;2.70;;;18.80;50.20;;;;;;5041664;28;43964;-61
2022/12/12 00:45:53;;;;;;;2.88;2.67;;;18.80;50.20;;;;;;5042319;28;43527;-61
2022/12/12 00:48:21;;;;;;;3.03;2.83;;;18.80;50.20;;;;;;5042085;28;43709;-60
2022/12/12 00:50:49;;;;;;;3.13;2.92;;;18.80;50.30;;;;;;5042487;28;44956;-62
2022/12/12 00:53:17;;;;;;;2.70;2.50;;;18.70;50.90;;;;;;5042166;28;43518;-61
2022/12/12 00:55:45;;;;;;;2.95;2.75;;;18.70;50.30;;;;;;5041513;28;43474;-61
2022/12/12 00:58:12;;;;;;;3.20;2.90;;;18.70;50.30;;;;;;5041915;28;43475;-61
2022/12/12 01:00:40;;;;;;;2.88;2.67;;;18.70;50.20;;;;;;5030203;28;44949;-61
2022/12/12 01:03:08;;;;;;;2.80;2.60;;;18.60;50.20;;;;;;5035078;28;43666;-61
2022/12/12 01:05:35;;;;;;;2.92;2.72;;;18.60;50.20;;;;;;5041760;28;43423;-60
2022/12/12 01:08:03;;;;;;;3.10;2.90;;;18.60;50.30;;;;;;5042476;28;43486;-61
2022/12/12 01:10:30;;;;;;;2.70;2.50;;;18.60;50.30;;;;;;5040856;28;44717;-61
2022/12/12 01:12:58;;;;;;;2.78;2.58;;;18.60;50.30;;;;;;5031412;28;43770;-61
2022/12/12 01:15:26;;;;;;;2.75;2.55;;;18.60;50.30;;;;;;5039633;28;43402;-61
2022/12/12 01:17:53;;;;;;;2.90;2.70;;;18.60;50.30;;;;;;5041466;28;43573;-61
2022/12/12 01:20:24;;;;;;;2.72;2.53;;;18.60;50.20;;;;;;5034564;28;43992;-61
2022/12/12 01:22:52;;;;;;;2.95;2.75;;;18.60;50.30;;;;;;5041662;28;43703;-61
2022/12/12 01:25:19;;;;;;;2.83;2.63;;;18.50;50.30;;;;;;5041477;28;43376;-61
2022/12/12 01:27:47;;;;;;;2.53;2.40;;;18.50;50.20;;;;;;5041865;28;43636;-61
2022/12/12 01:30:17;;;;;;;2.50;2.30;;;18.50;50.30;;;;;;5040603;28;43803;-61
2022/12/12 01:32:45;;;;;;;2.97;2.72;;;18.50;50.30;;;;;;5027119;28;43878;-61
2022/12/12 01:35:12;;;;;;;3.13;2.92;;;18.50;50.30;;;;;;5040797;28;43426;-61
2022/12/12 01:37:41;;;;;;;3.00;2.80;;;18.50;50.40;;;;;;5032371;28;43566;-61
2022/12/12 01:40:18;;;;;;;2.72;2.53;;;18.40;50.40;;;;;;5031840;28;44871;-61
2022/12/12 01:42:46;;;;;;;2.80;2.60;;;18.40;50.40;;;;;;5041467;28;43396;-62
2022/12/12 01:45:51;;;;;;;2.72;2.53;;;18.40;50.40;;;;;;5040829;28;43397;-61
2022/12/12 01:48:20;;;;;;;2.70;2.50;;;18.40;50.40;;;;;;5041308;28;43436;-61
2022/12/12 01:50:49;;;;;;;2.88;2.67;;;18.40;50.50;;;;;;5041080;28;44678;-61
2022/12/12 01:53:26;;;;;;;2.55;2.40;;;18.40;50.50;;;;;;5040889;28;43458;-61
2022/12/12 01:55:54;;;;;;;2.80;2.60;;;18.30;50.40;;;;;;5042919;28;43434;-62
2022/12/12 01:58:22;;;;;;;2.65;2.45;;;18.30;50.50;;;;;;5044688;28;43562;-61
2022/12/12 02:00:50;;;;;;;2.58;2.38;;;18.30;50.50;;;;;;5043787;28;44262;-61
2022/12/12 02:03:18;;;;;;;2.50;2.40;;;18.30;50.50;;;;;;5044944;28;43412;-61
2022/12/12 02:05:50;;;;;;;2.90;2.70;;;18.30;50.60;;;;;;5043870;28;43414;-61
2022/12/12 02:08:21;;;;;;;2.75;2.55;;;18.30;50.60;;;;;;5044824;28;43554;-61
2022/12/12 02:10:50;;;;;;;2.60;2.40;;;18.30;50.60;;;;;;5040713;28;43790;-61
2022/12/12 02:13:27;;;;;;;2.63;2.50;;;18.20;50.50;;;;;;5029212;28;43726;-61
2022/12/12 02:16:16;;;;;;;2.97;2.70;;;18.20;50.50;;;;;;5025857;28;43411;-62
2022/12/12 02:18:51;;;;;;;2.60;2.47;;;18.20;50.50;;;;;;5028895;28;43456;-61
2022/12/12 02:21:39;;;;;;;2.70;2.50;;;18.20;50.60;;;;;;5044155;28;44671;-61
2022/12/12 02:24:25;;;;;;;2.80;2.60;;;18.20;50.60;;;;;;5044318;28;43828;-61
2022/12/12 02:27:30;;;;;;;3.03;2.83;;;18.20;50.60;;;;;;5025006;28;43460;-61
2022/12/12 02:30:04;;;;;;;2.70;2.50;;;18.10;50.60;;;;;;5041013;28;43435;-61
2022/12/12 02:32:57;;;;;;;2.72;2.53;;;18.10;50.70;;;;;;5044461;28;44783;-61
2022/12/12 02:35:27;;;;;;;2.83;2.63;;;18.10;50.70;;;;;;5044491;28;43665;-61
2022/12/12 02:38:19;;;;;;;2.67;2.47;;;18.00;50.60;;;;;;5026463;28;43427;-61
2022/12/12 02:41:16;;;;;;;2.67;2.47;;;18.00;50.70;;;;;;5024457;28;43431;-61
2022/12/12 02:44:17;;;;;;;2.75;2.60;;;18.00;50.70;;;;;;5040313;28;43893;-61
2022/12/12 02:46:58;;;;;;;3.13;2.92;;;18.00;50.70;;;;;;5043853;28;43699;-61
2022/12/12 02:49:44;;;;;;;2.95;2.67;;;18.00;50.80;;;;;;5029735;28;43447;-62
2022/12/12 02:52:12;;;;;;;2.35;2.25;;;18.00;50.80;;;;;;5024837;28;43483;-61
2022/12/12 02:54:39;;;;;;;3.40;2.58;;;18.00;50.80;;;;;;5032867;28;43786;-61
2022/12/12 02:57:33;;;;;;;2.83;2.40;;;18.00;50.70;;;;;;5043306;28;43806;-62
2022/12/12 03:00:07;;;;;;;2.50;2.30;;;17.90;50.70;;;;;;5023064;28;43475;-61
2022/12/12 03:02:34;;;;;;;2.38;2.20;;;17.90;50.70;;;;;;5033077;28;43515;-61
2022/12/12 03:08:41;;;;;;;2.92;2.72;;;17.90;50.70;;;;;;5043429;28;43451;-61
2022/12/12 03:11:17;;;;;;;2.35;2.25;;;17.90;50.70;;;;;;5043077;28;43407;-61
2022/12/12 03:14:08;;;;;;;2.60;2.40;;;17.90;50.80;;;;;;5037555;28;43395;-61
2022/12/12 03:16:54;;;;;;;2.65;2.45;;;17.90;50.80;;;;;;5028246;28;45047;-61
2022/12/12 03:19:27;;;;;;;2.45;2.35;;;17.80;50.80;;;;;;5041571;28;43956;-61
2022/12/12 03:22:01;;;;;;;2.50;2.30;;;17.80;50.90;;;;;;5043782;28;43514;-61
2022/12/12 03:24:54;;;;;;;2.70;2.50;;;17.80;50.80;;;;;;5043283;28;43416;-61
2022/12/12 03:27:41;;;;;;;2.58;2.38;;;17.80;50.80;;;;;;5043497;28;44696;-61
2022/12/12 03:30:14;;;;;;;2.45;2.28;;;17.80;50.80;;;;;;5033740;28;43487;-61
2022/12/12 03:33:05;;;;;;;2.75;2.55;;;17.80;50.90;;;;;;5024144;28;43494;-61
2022/12/12 03:35:34;;;;;;;2.90;2.70;;;17.80;50.90;;;;;;5024529;28;43423;-61
2022/12/12 03:38:06;;;;;;;;;;;17.80;50.90;;;;;;5034310;28;44991;-61
2022/12/12 03:40:44;;;;;;;2.65;2.45;;;17.80;50.90;;;;;;5028138;28;43366;-61
2022/12/12 03:43:18;;;;;;;2.70;2.50;;;17.70;50.80;;;;;;5042585;28;43436;-61
2022/12/12 03:46:20;;;;;;;2.60;2.40;;;17.70;50.80;;;;;;5043155;28;43380;-61
2022/12/12 03:49:02;;;;;;;2.70;2.50;;;17.70;50.80;;;;;;5042757;28;44648;-61
2022/12/12 03:51:35;;;;;;;2.80;2.60;;;17.70;50.80;;;;;;5042319;28;43674;-61
2022/12/12 03:54:24;;;;;;;2.83;2.63;;;17.70;50.90;;;;;;5043467;28;43409;-61
2022/12/12 03:57:14;;;;;;;2.42;2.30;;;17.70;50.90;;;;;;5043376;28;43392;-61
2022/12/12 03:59:48;;;;;;;2.53;2.35;;;17.70;50.90;;;;;;5042308;28;45118;-61
2022/12/12 04:02:21;;;;;;;2.50;2.40;;;17.70;50.90;;;;;;5042236;28;43679;-61
2022/12/12 04:05:10;;;;;;;2.72;2.53;;;17.70;50.90;;;;;;5027319;28;43359;-61
2022/12/12 04:07:56;;;;;;;2.67;2.47;;;17.60;50.70;;;;;;5042200;28;43423;-61
2022/12/12 04:14:02;;;;;;;2.60;2.40;;;17.60;50.80;;;;;;5037446;28;44002;-61
2022/12/12 04:16:36;;;;;;;2.80;2.60;;;17.70;50.90;;;;;;5042973;28;43526;-61
2022/12/12 04:28:35;;;;;;;2.70;2.50;;;17.60;50.90;;;;;;5042014;28;43582;-61
2022/12/12 04:31:03;;;;;;;;;;;17.50;50.90;;;;;;5043620;28;43502;-61
2022/12/12 04:33:41;;;;;;;2.42;2.30;;;17.50;50.90;;;;;;5041587;28;44241;-61
2022/12/12 04:36:12;;;;;;;2.63;2.35;;;17.50;51.00;;;;;;5039644;28;44018;-61
2022/12/12 04:38:42;;;;;;;2.70;2.50;;;17.50;50.90;;;;;;5029643;28;43613;-61
2022/12/12 04:41:12;;;;;;;2.40;2.28;;;17.50;50.90;;;;;;5041938;28;43408;-61
2022/12/12 04:43:43;;;;;;;2.70;2.50;;;17.50;50.90;;;;;;5042221;28;45264;-61
2022/12/12 04:46:19;;;;;;;2.80;2.60;;;17.50;50.90;;;;;;5025192;28;43948;-61
2022/12/12 04:48:57;;;;;;;2.80;2.60;;;17.50;50.90;;;;;;5031170;28;43429;-61
2022/12/12 04:51:31;;;;;;;2.75;2.55;;;17.50;51.00;;;;;;5042709;28;43411;-61
2022/12/12 04:54:12;;;;;;;2.72;2.53;;;17.50;50.90;;;;;;5042215;28;44689;-61
2022/12/12 04:56:43;;;;;;;2.60;2.40;;;17.50;50.90;;;;;;5041925;28;43471;-61
2022/12/12 04:59:11;;;;;;;2.92;2.72;;;17.40;50.90;;;;;;5041716;28;43419;-61
2022/12/12 05:01:47;;;;;;;2.50;2.40;;;17.40;50.90;;;;;;5041784;28;43490;-61
2022/12/12 05:04:38;;;;;;;2.97;2.78;;;17.50;50.90;;;;;;5041897;28;44920;-61
2022/12/12 05:07:26;;;;;;;3.22;2.80;;;17.40;50.90;;;;;;5041507;28;43768;-61
2022/12/12 05:09:57;;;;;;;3.20;2.45;;;17.40;50.90;;;;;;5041553;28;43549;-61
2022/12/12 05:12:25;;;;;;;2.67;2.47;;;17.40;51.00;;;;;;5032220;28;43925;-61
2022/12/12 05:14:52;;;;;;;2.60;2.40;;;17.40;50.90;;;;;;5022284;28;44962;-61
2022/12/12 05:17:27;;;;;;;2.60;2.40;;;17.40;50.90;;;;;;5038403;28;43867;-61
2022/12/12 05:19:55;;;;;;;2.70;2.50;;;17.40;50.90;;;;;;5029356;28;43540;-61
2022/12/12 05:22:23;;;;;;;2.70;2.50;;;17.40;50.90;;;;;;5041560;28;43443;-61
2022/12/12 05:24:50;;;;;;;2.90;2.70;;;17.40;50.90;;;;;;5041177;28;43926;-61
2022/12/12 05:27:17;;;;;;;2.92;2.65;;;17.40;50.90;;;;;;5041952;28;44090;-61
2022/12/12 05:29:45;;;;;;;2.30;2.13;;;17.30;50.90;;;;;;5040968;28;43454;-61
2022/12/12 05:32:12;;;;;;;2.70;2.50;;;17.40;51.00;;;;;;5041287;28;43471;-62
2022/12/12 05:34:40;;;;;;;2.42;2.33;;;17.30;50.90;;;;;;5041464;28;44064;-61
2022/12/12 05:37:07;;;;;;;2.63;2.42;;;17.30;50.90;;;;;;5035938;28;43760;-61
2022/12/12 05:39:36;;;;;;;2.88;2.67;;;17.30;51.00;;;;;;5028278;28;44030;-61
2022/12/12 05:42:03;;;;;;;2.80;2.60;;;17.30;51.00;;;;;;5042117;28;43492;-61
2022/12/12 05:44:31;;;;;;;2.85;2.65;;;17.30;51.00;;;;;;5040992;28;43923;-62
2022/12/12 05:46:58;;;;;;;2.70;2.50;;;17.30;50.90;;;;;;5041602;28;43704;-61
2022/12/12 05:49:26;;;;;;;2.67;2.47;;;17.30;51.00;;;;;;5041089;28;43451;-61
2022/12/12 05:51:53;;;;;;;2.10;2.00;;;17.30;50.90;;;;;;5041428;28;43412;-61
2022/12/12 05:54:21;;;;;;;2.78;2.58;;;17.30;50.90;;;;;;5041260;28;44726;-62
2022/12/12 05:56:48;;;;;;;2.83;2.63;;;17.30;50.90;;;;;;5041180;28;43773;-61
2022/12/12 05:59:16;;;;;;;2.50;2.40;;;17.30;50.90;;;;;;5038705;28;43615;-61
2022/12/12 06:01:43;;;;;;;2.83;2.63;;;17.30;50.90;;;;;;5021805;28;43445;-61
2022/12/12 06:04:11;;;;;;;3.05;2.85;;;17.20;50.80;;;;;;5036806;28;45098;-61
2022/12/12 06:06:38;;;;;;;2.58;2.38;;;17.20;50.90;;;;;;5037955;28;43436;-61
2022/12/12 06:09:06;;;;;;;2.75;2.55;;;17.20;50.80;;;;;;5027876;28;43437;-61
2022/12/12 06:11:33;;;;;;;2.50;2.30;;;17.20;50.90;;;;;;5041057;28;43993;-61
2022/12/12 06:14:01;;;;;;;2.90;2.70;;;17.30;50.90;;;;;;5037297;28;43874;-62
2022/12/12 06:16:28;;;;;;;2.45;2.35;;;17.20;50.80;;;;;;5025181;28;43781;-61
2022/12/12 06:18:56;;;;;;;2.88;2.67;;;17.20;50.90;;;;;;5040293;28;44020;-61
2022/12/12 06:21:23;;;;;;;3.25;2.95;;;17.20;50.80;;;;;;5039592;28;43400;-62
2022/12/12 06:23:51;;;;;;;2.90;2.70;;;17.20;50.80;;;;;;5026449;28;44718;-61
2022/12/12 06:26:19;;;;;;;2.60;2.42;;;17.20;50.90;;;;;;5036904;28;43439;-61
2022/12/12 06:28:47;;;;;;;2.78;2.58;;;17.20;50.90;;;;;;5027822;28;43463;-61
2022/12/12 06:31:15;;;;;;;2.80;2.60;;;17.10;50.80;;;;;;5033273;28;43479;-61
2022/12/12 06:33:43;;;;;;;2.92;2.72;;;17.10;50.90;;;;;;5025906;28;44053;-61
2022/12/12 06:36:15;;;;;;;2.83;2.63;;;17.10;50.80;;;;;;5036526;28;43694;-61
2022/12/12 06:38:43;;;;;;;3.00;2.80;;;17.10;50.80;;;;;;5028116;28;43527;-61
2022/12/12 06:41:13;;;;;;;3.13;2.92;;;17.10;50.80;;;;;;5029625;28;43534;-62
2022/12/12 06:43:41;;;;;;;3.00;2.80;;;17.10;50.80;;;;;;5040335;28;43793;-61
2022/12/12 06:46:13;;;;;;;2.95;2.75;;;17.10;50.80;;;;;;5040284;28;43447;-61
2022/12/12 06:48:41;;;;;;;2.95;2.75;;;17.10;50.80;;;;;;5032324;28;43387;-61
2022/12/12 06:51:12;;;;;;;3.30;2.78;;;17.10;50.80;;;;;;5031745;28;44022;-61
2022/12/12 06:53:40;;;;;;;2.90;2.70;;;17.10;50.90;;;;;;5040693;28;44827;-61
2022/12/12 06:56:16;;;;;;;2.90;2.70;;;17.10;50.90;;;;;;5028810;28;43661;-61
2022/12/12 06:58:43;;;;;;;2.90;2.70;;;17.10;50.80;;;;;;5041614;28;43451;-61
2022/12/12 07:01:13;;;;;;;3.20;3.00;;;17.10;50.90;;;;;;5029142;28;43529;-61
2022/12/12 07:03:41;;;;;;;3.08;2.85;;;17.00;50.80;;;;;;5042643;28;44992;-61
2022/12/12 07:06:08;;;;;;;3.30;3.00;;;17.00;50.80;;;;;;5042672;28;43985;-61
2022/12/12 07:08:37;;;;;;;3.10;2.80;;;17.00;50.80;;;;;;5032539;28;43452;-61
2022/12/12 07:11:16;;;;;;;2.95;2.75;;;17.00;50.80;;;;;;5037813;28;43903;-61
2022/12/12 07:13:43;;;;;;;2.88;2.67;;;17.00;50.80;;;;;;5035296;28;44771;-61
2022/12/12 07:16:11;;;;;;;3.20;2.90;;;17.00;50.80;;;;;;5031678;28;43671;-61
2022/12/12 07:18:40;;;;;;;3.35;3.05;;;17.00;50.90;;;;;;5030081;28;43368;-61
2022/12/12 07:21:10;;;;;;;3.08;2.88;;;17.00;50.80;;;;;;5039946;28;43432;-61
2022/12/12 07:23:37;;;;;;;3.40;3.10;;;17.00;51.00;;;;;;5041230;28;44977;-61
2022/12/12 07:26:08;;;;;;;3.13;2.83;;;17.00;50.90;;;;;;5035055;28;43664;-61
2022/12/12 07:28:38;;;;;;;3.22;2.92;;;17.00;51.00;;;;;;5036836;28;43489;-61
2022/12/12 07:31:12;;;;;;;3.25;3.05;;;16.90;51.00;;;;;;5025849;28;43390;-61
2022/12/12 07:33:41;;;;;;;3.35;3.10;;;16.90;50.90;;;;;;5031081;28;44673;-61
2022/12/12 07:36:15;;;;;;;3.20;3.00;;;16.90;50.80;;;;;;5035218;28;43781;-61
2022/12/12 07:38:43;;;;;;;3.30;3.10;;;16.90;50.90;;;;;;5027724;28;43363;-61
2022/12/12 07:41:14;;;;;;;3.45;3.15;;;16.90;50.90;;;;;;5039856;28;43451;-61
2022/12/12 07:43:43;;;;;;;3.87;3.47;;;16.90;50.90;;;;;;5030976;28;44741;-61
2022/12/12 07:46:20;;;;;;;3.67;2.95;;;16.90;51.50;;;;;;5033180;28;43489;-62
2022/12/12 07:48:48;;;;;;;3.17;2.90;;;16.90;50.90;;;;;;5026605;28;43482;-61
2022/12/12 07:51:17;;;;;;;3.15;2.95;;;16.80;50.90;;;;;;5042757;28;43497;-62
2022/12/12 07:53:45;;;;;;;2.88;2.67;;;16.80;50.90;;;;;;5032287;28;44767;-62
2022/12/12 07:56:14;;;;;;;3.28;2.97;;;16.80;50.80;;;;;;5023483;28;43967;-62
2022/12/12 07:58:42;;;;;;;3.17;2.92;;;16.80;50.80;;;;;;5038549;28;43765;-62
2022/12/12 08:01:19;;;;;;;3.45;3.15;;;16.80;50.90;;;;;;5028517;28;43583;-62
2022/12/12 08:03:47;;;;;;;3.40;3.10;;;16.80;50.90;;;;;;5035519;28;44227;-62
2022/12/12 08:06:16;;;;;;;3.10;2.80;;;16.80;50.90;;;;;;5026465;28;43781;-62
2022/12/12 08:08:44;;;;;;;2.83;2.55;;;16.80;50.90;;;;;;5037451;28;43536;-62
2022/12/12 08:11:14;;;;;;;3.05;2.72;;;16.80;50.90;;;;;;5031758;28;43531;-63
2022/12/12 08:13:41;;;;;;;3.30;3.00;;;16.80;50.90;;;;;;5041279;28;45201;-61
2022/12/12 08:16:18;;;;;;;3.15;2.85;;;16.80;50.90;;;;;;5026702;28;43475;-61
2022/12/12 08:18:46;;;;;;;2.95;2.75;;;16.80;50.90;;;;;;5030305;28;44043;-61
2022/12/12 08:21:15;;;;;;;2.80;2.60;;;16.80;50.90;;;;;;5035256;28;43418;-61
2022/12/12 08:24:01;;;;;;;3.08;2.88;;;16.80;51.00;;;;;;5022611;28;43849;-62
2022/12/12 08:26:29;;;;;;;3.08;2.88;;;16.80;50.90;;;;;;5037984;28;44433;-62
2022/12/12 08:28:57;;;;;;;3.30;2.80;;;16.80;51.00;;;;;;5030717;28;43524;-61
2022/12/12 08:31:25;;;;;;;3.00;2.80;;;16.80;51.10;;;;;;5029983;28;43567;-61
2022/12/12 08:33:53;;;;;;;3.35;3.15;;;16.80;51.60;;;;;;5038126;28;44893;-62
2022/12/12 08:36:23;;;;;;;5.43;3.25;;;16.80;51.00;;;;;;5024396;28;43601;-61
2022/12/12 08:38:51;;;;;;;4.15;3.17;;;16.80;51.10;;;;;;5031563;28;43431;-62
2022/12/12 08:41:19;;;;;;;6.63;3.30;;;16.70;51.10;;;;;;5036608;28;43490;-62
2022/12/12 08:43:47;;;;;;;5.95;2.85;;;16.80;51.20;;;;;;5025958;28;43809;-62
2022/12/12 08:46:16;;;;;;;3.67;3.10;;;16.80;51.20;;;;;;5037541;28;43801;-62
2022/12/12 08:48:46;;;;;;;3.63;3.25;;;16.80;51.10;;;;;;5027178;28;43506;-62
2022/12/12 08:51:15;;;;;;;3.58;2.90;;;16.80;51.00;;;;;;5025262;28;43572;-62
2022/12/12 08:53:48;;;;;;;3.80;3.50;;;16.90;51.20;;;;;;5037574;28;44685;-62
2022/12/12 08:56:16;;;;;;;5.03;3.45;;;16.90;51.00;;;;;;5029040;28;44137;-62
2022/12/12 08:58:45;;;;;;;3.60;3.28;;;17.00;50.90;;;;;;5031758;28;43438;-62
2022/12/12 09:01:19;;;;;;;3.53;3.22;;;17.00;50.70;;;;;;5033921;28;43403;-62
2022/12/12 09:03:47;;;;;;;3.40;3.15;;;17.10;50.70;;;;;;5037981;28;44711;-59
2022/12/12 09:06:16;;;;;;;3.70;3.40;;;17.30;51.60;;;;;;5029474;28;43458;-61
2022/12/12 09:08:44;;;;;;;7.15;3.22;;;17.40;50.50;;;;;;5029877;28;43423;-61
2022/12/12 09:11:13;;;;;;;4.30;2.97;;;17.50;50.70;;;;;;5038997;28;43523;-60
2022/12/12 09:13:40;;;;;;;6.20;3.08;;;17.60;50.30;;;;;;5037466;28;44754;-62
2022/12/12 09:16:08;;;;;;;4.00;3.20;;;17.80;50.10;;;;;;5029836;28;43487;-61
2022/12/12 09:18:36;;;;;;;4.72;3.40;;;17.90;50.00;;;;;;5029337;28;43479;-63
2022/12/12 09:21:10;;;;;;;3.78;3.10;;;18.10;49.90;;;;;;5025598;28;43516;-61
2022/12/12 09:23:38;;;;;;;3.15;2.85;;;18.30;49.70;;;;;;5030245;28;44686;-61
2022/12/12 09:26:06;;;;;;;3.75;3.35;;;18.40;49.70;;;;;;5028873;28;43771;-62
2022/12/12 09:28:35;;;;;;;3.35;3.05;;;18.50;49.40;;;;;;5024187;28;43557;-61
2022/12/12 09:31:06;;;;;;;3.95;3.42;;;18.60;49.30;;;;;;5030998;28;43491;-61
2022/12/12 09:33:34;;;;;;;3.60;3.30;;;18.60;49.00;;;;;;5022709;28;44144;-63
2022/12/12 09:36:04;;;;;;;3.20;2.90;;;18.70;49.60;;;;;;5027128;28;43879;-60
2022/12/12 09:38:32;;;;;;;3.05;2.75;;;18.70;49.00;;;;;;5033900;28;43423;-61
2022/12/12 09:41:19;;;;;;;3.50;3.20;;;18.70;49.10;;;;;;5031146;28;43475;-61
2022/12/12 09:44:17;;;;;;;3.30;3.00;;;18.70;49.00;;;;;;5025425;28;43879;-61
2022/12/12 09:46:56;;;;;;;3.95;3.22;;;18.80;48.80;;;;;;5026458;28;43378;-60
2022/12/12 09:49:41;;;;;;;3.78;3.40;;;18.90;49.00;;;;;;5032188;28;43413;-61
2022/12/12 09:52:15;;;;;;;3.05;2.85;;;18.90;48.90;;;;;;5028203;28;43529;-59
2022/12/12 09:54:43;;;;;;;3.08;2.85;;;19.00;49.00;;;;;;5031816;28;43888;-61
2022/12/12 09:57:35;;;;;;;3.00;2.70;;;19.10;49.00;;;;;;5033612;28;43547;-61
2022/12/12 10:00:09;;;;;;;3.22;3.03;;;19.10;49.00;;;;;;5023446;28;43534;-60
2022/12/12 10:02:52;;;;;;;3.10;2.70;;;19.20;48.80;;;;;;5023998;28;43420;-60
2022/12/12 10:05:45;;;;;;;3.05;2.83;;;19.20;49.00;;;;;;5031033;28;44740;-61
2022/12/12 10:08:12;;;;;;;3.28;2.97;;;19.30;49.00;;;;;;5027928;28;43463;-60
2022/12/12 10:11:05;;;;;;;3.30;2.70;;;19.40;49.00;;;;;;5027000;28;43456;-62
2022/12/12 10:13:35;;;;;;;3.22;3.00;;;19.40;48.70;;;;;;5023791;28;43542;-60
2022/12/12 10:16:09;;;;;;;4.13;3.10;;;19.50;48.60;;;;;;5032375;28;44652;-61
2022/12/12 10:18:44;;;;;;;3.10;2.90;;;19.50;48.60;;;;;;5024671;28;43875;-61
2022/12/12 10:21:20;;;;;;;2.92;2.65;;;19.60;48.50;;;;;;5035480;28;43396;-60
2022/12/12 10:23:52;;;;;;;3.83;2.95;;;19.60;48.40;;;;;;5029337;28;43422;-60
2022/12/12 10:26:26;;;;;;;5.07;2.80;;;19.60;48.50;;;;;;5033530;28;44677;-60
2022/12/12 10:29:01;;;;;;;3.72;3.25;;;19.70;48.10;;;;;;5029540;28;43963;-61
2022/12/12 10:31:50;;;;;;;2.90;2.70;;;19.70;48.10;;;;;;5027683;28;43495;-61
2022/12/12 10:34:30;;;;;;;2.90;2.70;;;19.70;48.30;;;;;;5032925;28;43415;-60
2022/12/12 10:37:13;;;;;;;3.30;2.80;;;19.70;48.20;;;;;;5044153;28;43799;-60
2022/12/12 10:39:53;;;;;;;3.20;2.90;;;19.80;48.10;;;;;;5027658;28;43999;-60
2022/12/12 10:42:21;;;;;;;3.13;2.70;;;19.80;48.00;;;;;;5030258;28;44243;-60
2022/12/12 10:45:23;;;;;;;3.10;2.80;;;19.90;47.90;;;;;;5034738;28;43458;-60
2022/12/12 10:47:51;;;;;;;2.70;2.50;;;20.00;47.80;;;;;;5018656;28;45013;-60
2022/12/12 10:50:37;;;;;;;2.90;2.70;;;20.10;47.90;;;;;;5037480;28;44183;-60
2022/12/12 10:53:07;;;;;;;3.00;2.80;;;20.10;47.80;;;;;;5037796;28;43456;-60
2022/12/12 10:55:49;;;;;;;2.80;2.60;;;20.20;47.80;;;;;;5028283;28;43399;-60
2022/12/12 10:58:17;;;;;;;3.60;3.25;;;20.20;47.70;;;;;;5036105;28;44644;-60
2022/12/12 11:00:47;;;;;;;3.30;3.00;;;20.30;47.70;;;;;;5034478;28;43806;-60
2022/12/12 11:03:28;;;;;;;3.58;3.28;;;20.40;47.60;;;;;;5033471;28;43522;-60
2022/12/12 11:05:56;;;;;;;8.00;4.22;;;20.50;47.70;;;;;;5032310;28;43579;-60
2022/12/12 11:08:26;;;;;;;6.57;5.20;;;20.50;47.60;;;;;;5030875;28;44153;-60
2022/12/12 11:11:09;;;;;;;5.87;4.90;;;20.50;47.60;;;;;;5032390;28;43554;-60
2022/12/12 11:13:45;;;;;;;7.45;5.20;;;20.60;47.50;;;;;;5032765;28;43525;-60
2022/12/12 11:16:17;;;;;;;8.95;5.90;;;20.60;47.50;;;;;;5037723;28;43496;-61
2022/12/12 11:19:19;;;;;;;9.25;6.05;;;20.70;47.60;;;;;;5032649;28;44031;-60
2022/12/12 11:21:48;;;;;;;7.80;5.82;;;20.70;47.50;;;;;;5020943;28;43422;-61
2022/12/12 11:24:19;;;;;;;8.20;5.75;;;20.80;47.60;;;;;;5030063;28;43491;-60
2022/12/12 11:27:03;;;;;;;8.57;6.00;;;20.80;47.50;;;;;;5041378;28;44010;-60
2022/12/12 11:30:00;;;;;;;6.30;5.50;;;20.90;47.50;;;;;;5030741;28;44004;-59
2022/12/12 11:32:42;;;;;;;7.63;6.03;;;21.00;47.40;;;;;;5034923;28;43380;-60
2022/12/12 11:35:31;;;;;;;7.90;5.93;;;20.90;47.40;;;;;;5032949;28;43512;-59
2022/12/12 11:38:27;;;;;;;6.28;5.60;;;21.00;47.40;;;;;;5039236;28;43535;-60
2022/12/12 11:41:02;;;;;;;7.13;5.80;;;21.00;47.50;;;;;;5030204;28;45141;-60
2022/12/12 11:43:34;;;;;;;7.93;5.50;;;21.00;47.40;;;;;;5036732;28;43522;-60
2022/12/12 11:46:18;;;;;;;8.10;5.47;;;21.00;47.50;;;;;;5033266;28;43471;-60
2022/12/12 11:48:46;;;;;;;7.13;4.97;;;21.10;47.50;;;;;;5053758;28;43520;-59
2022/12/12 11:51:38;;;;;;;7.60;5.45;;;21.10;47.50;;;;;;5035396;28;43881;-60
2022/12/12 11:54:15;;;;;;;5.47;4.88;;;21.10;47.50;;;;;;5039111;28;44047;-61
2022/12/12 11:57:05;;;;;;;6.88;5.10;;;21.10;47.60;;;;;;5030599;28;43440;-61
2022/12/12 11:59:39;;;;;;;7.07;4.78;;;21.20;47.60;;;;;;5024006;28;43531;-61
2022/12/12 12:02:30;;;;;;;6.32;4.60;;;21.20;47.50;;;;;;5037464;28;43746;-60
2022/12/12 12:05:35;;;;;;;5.97;5.07;;;21.20;47.50;;;;;;5030897;28;43601;-60
2022/12/12 12:08:23;;;;;;;5.43;4.15;;;21.20;47.50;;;;;;5024883;28;43373;-60
2022/12/12 12:10:59;;;;;;;6.15;4.70;;;21.20;47.50;;;;;;5030150;28;44078;-60
2022/12/12 12:13:29;;;;;;;6.32;4.68;;;21.30;47.50;;;;;;5041692;28;45306;-60
2022/12/12 12:17:04;;;;;;;6.60;4.55;;;21.30;47.60;;;;;;5028312;28;43423;-60
2022/12/12 12:19:35;;;;;;;5.32;4.70;;;21.30;47.50;;;;;;4956209;28;43509;-60
2022/12/12 12:22:23;;;;;;;5.47;4.30;;;21.30;47.30;;;;;;5028047;28;43580;-60
2022/12/12 12:25:12;;;;;;;4.82;3.85;;;21.20;47.20;;;;;;5028113;28;44711;-60
2022/12/12 12:27:40;;;;;;;5.20;4.20;;;21.20;47.30;;;;;;5027552;28;44105;-60
2022/12/12 12:30:08;;;;;;;5.28;4.05;;;21.20;47.30;;;;;;5039319;28;43535;-61
2022/12/12 12:33:04;;;;;;;5.90;4.30;;;21.20;47.50;;;;;;5028458;28;43410;-60
2022/12/12 12:35:52;;;;;;;4.07;3.67;;;21.20;47.50;;;;;;5027907;28;44740;-60
2022/12/12 12:38:45;;;;;;;4.50;3.85;;;21.10;47.50;;;;;;4986991;28;43798;-59
2022/12/12 12:41:24;;;;;;;4.72;3.58;;;21.10;47.40;;;;;;5021739;28;43435;-61
2022/12/12 12:43:54;;;;;;;4.68;3.38;;;21.10;47.60;;;;;;5039031;28;43416;-60
2022/12/12 12:46:34;;;;;;;3.97;3.17;;;21.10;47.60;;;;;;5028646;28;44640;-60
2022/12/12 12:49:13;;;;;;;3.92;3.25;;;21.10;47.70;;;;;;5029451;28;43956;-60
2022/12/12 12:51:48;;;;;;;5.68;3.42;;;21.10;48.30;;;;;;5039349;28;43526;-60
2022/12/12 12:54:24;;;;;;;4.65;3.30;;;21.10;47.70;;;;;;5022087;28;43510;-60
2022/12/12 12:57:05;;;;;;;3.72;3.33;;;21.10;47.70;;;;;;5034594;28;43876;-60
2022/12/12 12:59:40;;;;;;;3.30;3.00;;;21.00;47.70;;;;;;5025836;28;43727;-59
2022/12/12 13:02:27;;;;;;;3.95;3.25;;;21.10;47.80;;;;;;5034952;28;43495;-59
2022/12/12 13:05:11;;;;;;;5.45;3.15;;;21.10;47.80;;;;;;5022459;28;43550;-58
2022/12/12 13:08:05;;;;;;;3.60;3.03;;;21.10;47.90;;;;;;5037310;28;44776;-59
2022/12/12 13:10:33;;;;;;;6.30;3.10;;;21.10;47.90;;;;;;5033182;28;43958;-59
2022/12/12 13:13:18;;;;;;;6.05;3.00;;;21.10;47.90;;;;;;5041968;28;43375;-59
2022/12/12 13:15:51;;;;;;;7.15;3.13;;;21.20;48.00;;;;;;5027621;28;43356;-59
2022/12/12 13:18:19;;;;;;;3.28;2.97;;;21.10;47.90;;;;;;5031072;28;44299;-59
2022/12/12 13:20:57;;;;;;;4.90;2.90;;;21.10;47.90;;;;;;5036657;28;43426;-59
2022/12/12 13:23:27;;;;;;;3.33;2.65;;;21.10;47.90;;;;;;5039612;28;43451;-59
2022/12/12 13:26:20;;;;;;;3.63;2.50;;;21.20;48.00;;;;;;5034272;28;43462;-59
2022/12/12 13:28:53;;;;;;;3.90;3.08;;;21.10;47.90;;;;;;5036911;28;43800;-58
2022/12/12 13:31:30;;;;;;;5.15;2.97;;;21.10;48.00;;;;;;5035043;28;43508;-59
2022/12/12 13:34:10;;;;;;;6.07;2.85;;;21.10;47.90;;;;;;5031966;28;43481;-59
2022/12/12 13:36:42;;;;;;;5.47;2.88;;;21.10;47.80;;;;;;5031303;28;43383;-59
2022/12/12 13:39:25;;;;;;;4.70;3.00;;;21.10;47.90;;;;;;5025098;28;44752;-59
2022/12/12 13:42:00;;;;;;;3.95;2.85;;;21.10;47.90;;;;;;5022193;28;44030;-59